ADDS TAF Board (Experimental) INFO

IDs: Format: Expanded Condensed

Updated at: 0554 UTC 01 Nov 2014

KLGA - New York/La Guardia, NY, US

Issued at 0536 UTC 01 Nov 2014
Time0551Z01/06Z01/07Z01/08Z01/09Z01/10Z01/11Z01/12Z01/13Z01/14Z01/15Z01/16Z01/17Z01/18Z
TypeOBSPRVLPRVLPRVLPRVLPRVLPRVLPRVLPRVLPRVLPRVLPRVLPRVLPRVL
VIS105555555333335
CIG1710101010101010101010101015
CoverOVCOVCOVCOVCOVCOVCOVCOVCOVCOVCOVCOVCOVCOVC
FltCatMVFRMVFRMVFRMVFRMVFRMVFRMVFRMVFRMVFRMVFRMVFRMVFRMVFRMVFR
WX---RA BR-RA BR-RA BR-RA BR-RA BR-RA BR-RA BRRA BRRA BRRA BRRA BRRA BR-RA BR
WDir30404040404040402020202020360
WSpd1618181818181818202020202021
WGst2028282828282828282828282831
R04/22
XWnd1-3-3-3-3-3-3-34444411
XGst1-4-4-4-4-4-4-46666616
HWnd1618181818181818202020202018
HGst2028282828282828272727272726
R13/31
XWnd1618181818181818202020202018
XGst2028282828282828272727272726
HWnd-13333333-4-4-4-4-4-11
HGst-14444444-6-6-6-6-6-16
Raw TAF
KLGA 010536Z 0106/0206 04018G28KT 5SM -RA BR OVC010
  FM011300 02020G28KT 3SM RA BR OVC010
  FM011800 36021G31KT 5SM -RA BR OVC015
  FM012200 35020G30KT P6SM SCT015 BKN025 OVC035
  FM020200 34020G30KT P6SM SCT025 OVC040


Raw METAR
KLGA 010551Z 03016G20KT 10SM OVC017 09/06 A2985 RMK AO2 SLP109 60004 T00890056 10128 20089 56009
KLGA 010522Z 03012G20KT 10SM OVC015 09/06 A2985 RMK AO2
KLGA 010451Z 04011KT 10SM OVC013 09/07 A2986 RMK AO2 PK WND 05027/0354 RAE26 SLP110 P0001 T00890072 401280072

TAF Board Legend

Hazard VFR MVFR IFR LIFR
Visibility (sm) >5 3≤X≤5 1≤X<3 <1
Ceiling (100 ft) >30 10≤X≤30 5≤X<10 <5
Wind Speed (kt) <10 10≤X<20 20≤X<30 ≥30
Wind Gust (kt) <15 15≤X<25 25≤X<35 ≥35
Weather No Wx Reported VCTS,-TS,-FZRA TS,FZRA +TS,+FZRA


Page loaded:  05:54 UTC  |   10:54 PM Pacific  |   11:54 PM Mountain  |   12:54 AM Central  |   01:54 AM Eastern

 

ADVISORIES

FORECASTS

FORECASTS

OBSERVATIONS

USER TOOLS

ABOUT US